Time;durP1;ratioP1;P1;durP2;ratioP2;P2;SDS_P1;SDS_P2;PMS_P1;PMS_P2;Temp;Humidity;BMP_temperature;BMP_pressure;BME280_temperature;BME280_humidity;BME280_pressure;Samples;Min_cycle;Max_cycle;Signal;HPM_P1;HPM_P2
2023/08/09 00:00:09;;;;;;;3.03;0.90;;;;;;;19.51;100.00;100371.19;5071159;28;20217;-68
2023/08/09 00:02:37;;;;;;;0.80;0.80;;;;;;;18.93;100.00;100298.47;5071309;28;20203;-68
2023/08/09 00:05:05;;;;;;;3.47;1.02;;;;;;;19.42;100.00;100381.84;5070648;28;20210;-68
2023/08/09 00:07:32;;;;;;;0.82;0.77;;;;;;;19.33;100.00;100360.03;5071567;28;20206;-68
2023/08/09 00:09:58;;;;;;;3.30;1.00;;;;;;;19.21;100.00;100347.09;5071380;28;20202;-68
2023/08/09 00:12:25;;;;;;;0.70;0.70;;;;;;;19.32;100.00;100375.84;5071836;28;20656;-69
2023/08/09 00:14:52;;;;;;;2.47;1.00;;;;;;;19.22;100.00;100375.13;5071607;28;20604;-68
2023/08/09 00:17:19;;;;;;;0.70;0.70;;;;;;;19.07;100.00;100354.34;5071408;28;20223;-68
2023/08/09 00:19:47;;;;;;;2.40;0.88;;;;;;;19.17;100.00;100376.06;5071716;28;20203;-68
2023/08/09 00:22:14;;;;;;;0.70;0.70;;;;;;;19.08;100.00;100370.97;5071537;28;20685;-68
2023/08/09 00:24:42;;;;;;;3.80;1.08;;;;;;;19.03;100.00;100368.41;5071230;28;20209;-68
2023/08/09 00:27:09;;;;;;;0.75;0.70;;;;;;;19.03;100.00;100372.78;5071410;28;20195;-68
2023/08/09 00:29:36;;;;;;;2.42;0.93;;;;;;;18.98;100.00;100372.84;5071300;28;20202;-68
2023/08/09 00:32:03;;;;;;;0.70;0.70;;;;;;;19.03;100.00;100372.78;5036190;28;20195;-68
2023/08/09 00:34:30;;;;;;;2.38;0.98;;;;;;;19.18;100.00;100367.31;5035859;28;20230;-68
2023/08/09 00:36:59;;;;;;;0.70;0.70;;;;;;;19.20;100.00;100371.66;5071381;28;20731;-68
2023/08/09 00:39:26;;;;;;;1.15;0.88;;;;;;;19.02;100.00;100350.88;5070647;28;20202;-68
2023/08/09 00:41:53;;;;;;;0.75;0.75;;;;;;;19.12;100.00;100368.25;5071055;28;20230;-69
2023/08/09 00:44:20;;;;;;;2.17;0.77;;;;;;;19.15;100.00;100368.25;5035374;28;20281;-68
2023/08/09 00:46:46;;;;;;;2.15;0.90;;;;;;;19.02;100.00;100361.41;5071111;28;20661;-68
2023/08/09 00:49:13;;;;;;;2.08;0.82;;;;;;;18.98;100.00;100361.50;5070917;28;20194;-68
2023/08/09 00:51:40;;;;;;;2.15;0.80;;;;;;;18.70;100.00;100345.22;5051989;28;20209;-68
2023/08/09 00:54:08;;;;;;;2.63;0.90;;;;;;;18.65;100.00;100339.19;5070565;28;20194;-68
2023/08/09 00:56:36;;;;;;;1.65;0.85;;;;;;;18.81;100.00;100356.47;5069735;28;20697;-68
2023/08/09 00:59:03;;;;;;;1.85;0.90;;;;;;;18.86;100.00;100370.41;5070939;28;20248;-68
2023/08/09 01:01:30;;;;;;;1.75;0.80;;;;;;;18.64;100.00;100340.94;5070566;28;20210;-68
2023/08/09 01:03:57;;;;;;;2.38;0.88;;;;;;;18.93;100.00;100373.81;5070568;28;20207;-68
2023/08/09 01:06:31;;;;;;;4.75;1.70;;;;;;;18.93;100.00;100369.44;5035475;28;20199;-68
2023/08/09 01:09:04;;;;;;;1.83;0.82;;;;;;;18.92;100.00;100372.06;5070667;28;20207;-68
2023/08/09 01:11:42;;;;;;;0.77;0.77;;;;;;;18.70;100.00;100343.47;5070972;28;20230;-69
2023/08/09 01:14:11;;;;;;;2.38;0.85;;;;;;;18.97;100.00;100368.50;5070986;28;20199;-68
2023/08/09 01:16:39;;;;;;;0.98;0.80;;;;;;;18.65;100.00;100326.94;5070894;28;20254;-68
2023/08/09 01:19:12;;;;;;;0.93;0.80;;;;;;;18.97;100.00;100373.75;5070137;28;20206;-68
2023/08/09 01:21:41;;;;;;;1.85;0.85;;;;;;;18.91;100.00;100367.69;5071073;28;20237;-68
2023/08/09 01:24:10;;;;;;;1.33;0.80;;;;;;;18.93;100.00;100372.06;5073900;28;20277;-68
2023/08/09 01:26:40;;;;;;;1.85;0.80;;;;;;;18.86;100.00;100370.41;5069214;28;20199;-68
2023/08/09 01:29:07;;;;;;;0.70;0.70;;;;;;;18.69;100.00;100372.41;5074864;28;20203;-68
2023/08/09 01:31:33;;;;;;;0.85;0.70;;;;;;;18.62;100.00;100370.75;5074386;28;20214;-68
2023/08/09 01:34:00;;;;;;;0.80;0.80;;;;;;;18.58;100.00;100371.69;5074563;28;20203;-68
2023/08/09 01:36:32;;;;;;;2.17;0.95;;;;;;;18.58;100.00;100375.19;5073288;28;20235;-68
2023/08/09 01:39:07;;;;;;;0.80;0.80;;;;;;;18.59;100.00;100376.03;5074085;28;20195;-68
2023/08/09 01:41:36;;;;;;;2.83;0.88;;;;;;;18.50;100.00;100371.75;5074055;28;20211;-69
2023/08/09 01:44:04;;;;;;;0.70;0.70;;;;;;;18.48;100.00;100377.91;5073649;28;20195;-69
2023/08/09 01:46:31;;;;;;;1.63;0.85;;;;;;;18.56;100.00;100379.56;5073805;28;20202;-69
2023/08/09 01:49:09;;;;;;;0.70;0.70;;;;;;;18.51;100.00;100372.66;5073737;28;20210;-69
2023/08/09 01:51:36;;;;;;;1.55;0.80;;;;;;;18.49;100.00;100379.63;5038724;28;20293;-69
2023/08/09 01:54:03;;;;;;;0.75;0.65;;;;;;;18.42;100.00;100377.97;5074102;28;20230;-69
2023/08/09 01:56:30;;;;;;;1.17;0.80;;;;;;;18.39;100.00;100380.63;5073490;28;20636;-69
2023/08/09 01:58:58;;;;;;;0.95;0.75;;;;;;;18.38;100.00;100382.38;5074058;28;20264;-69
2023/08/09 02:01:25;;;;;;;2.47;0.77;;;;;;;18.44;100.00;100376.19;5073494;28;20566;-69
2023/08/09 02:03:53;;;;;;;1.10;0.80;;;;;;;18.29;100.00;100378.13;5072914;28;20229;-69
2023/08/09 02:06:19;;;;;;;0.85;0.70;;;;;;;18.17;100.00;100365.13;5074267;28;20276;-69
2023/08/09 02:08:46;;;;;;;0.70;0.70;;;;;;;18.29;100.00;100387.75;5038693;28;20214;-69
2023/08/09 02:11:13;;;;;;;3.83;1.05;;;;;;;18.41;100.00;100381.50;5053842;28;20222;-69
2023/08/09 02:13:40;;;;;;;1.25;0.77;;;;;;;18.24;100.00;100382.53;5053825;28;20195;-69
2023/08/09 02:16:08;;;;;;;1.58;0.90;;;;;;;18.21;100.00;100374.72;5053819;28;20286;-69
2023/08/09 02:18:35;;;;;;;0.65;0.65;;;;;;;18.18;100.00;100364.25;5054229;28;20203;-69
2023/08/09 02:21:02;;;;;;;3.35;1.00;;;;;;;18.16;100.00;100355.50;5054353;28;20199;-69
2023/08/09 02:23:29;;;;;;;0.70;0.70;;;;;;;18.36;100.00;100381.53;5073800;28;20222;-76
2023/08/09 02:25:56;;;;;;;5.85;1.08;;;;;;;18.41;100.00;100371.00;5073760;28;20199;-75
2023/08/09 02:28:23;;;;;;;0.77;0.77;;;;;;;18.61;100.00;100390.91;5073645;28;20205;-69
2023/08/09 02:30:50;;;;;;;0.93;0.73;;;;;;;18.53;100.00;100394.50;5073704;28;20198;-69
2023/08/09 02:33:19;;;;;;;1.48;0.90;;;;;;;18.68;100.00;100396.94;5073626;28;20202;-69
2023/08/09 02:35:54;;;;;;;3.70;1.05;;;;;;;18.58;100.00;100384.81;5073654;28;20230;-69
2023/08/09 02:38:21;;;;;;;0.77;0.77;;;;;;;18.54;100.00;100386.59;5073129;28;20226;-69
2023/08/09 02:40:49;;;;;;;3.08;0.98;;;;;;;18.51;100.00;100391.03;5072922;28;20654;-69
2023/08/09 02:43:17;;;;;;;1.55;0.90;;;;;;;18.52;100.00;100400.63;5072859;28;20191;-68
2023/08/09 02:45:44;;;;;;;1.85;0.90;;;;;;;18.42;100.00;100380.59;5072974;28;20233;-69
2023/08/09 02:48:11;;;;;;;0.93;0.73;;;;;;;18.54;100.00;100399.75;5072879;28;20202;-68
2023/08/09 02:50:41;;;;;;;1.95;0.85;;;;;;;18.67;100.00;100409.19;5073121;28;20199;-69
2023/08/09 02:53:08;;;;;;;0.70;0.70;;;;;;;18.70;100.00;100416.16;5071878;28;20229;-74
2023/08/09 02:55:36;;;;;;;1.85;0.85;;;;;;;18.65;100.00;100415.38;5073350;28;20203;-76
2023/08/09 02:58:05;;;;;;;1.05;0.90;;;;;;;18.13;100.00;100323.19;5072535;28;20594;-69
2023/08/09 03:00:32;;;;;;;3.42;1.10;;;;;;;18.62;100.00;100428.53;5037661;28;20648;-69
2023/08/09 03:02:59;;;;;;;0.60;0.60;;;;;;;18.57;100.00;100425.09;5072674;28;20202;-69
2023/08/09 03:05:26;;;;;;;1.83;0.90;;;;;;;18.50;100.00;100424.25;5072577;28;20195;-69
2023/08/09 03:07:54;;;;;;;1.25;0.90;;;;;;;18.45;100.00;100435.69;5072434;28;20199;-68
2023/08/09 03:10:21;;;;;;;3.92;1.10;;;;;;;18.20;100.00;100420.22;5072142;28;20191;-68
2023/08/09 03:12:48;;;;;;;0.70;0.70;;;;;;;18.21;100.00;100431.59;5072282;28;20227;-69
2023/08/09 03:15:16;;;;;;;1.45;0.95;;;;;;;18.14;100.00;100436.03;5037251;28;20205;-69
2023/08/09 03:17:43;;;;;;;0.80;0.80;;;;;;;18.09;100.00;100429.94;5053402;28;20238;-69
2023/08/09 03:20:13;;;;;;;2.00;1.00;;;;;;;18.05;100.00;100435.25;5055386;28;20282;-69
2023/08/09 03:22:40;;;;;;;0.60;0.60;;;;;;;17.99;100.00;100430.06;5071992;28;20264;-69
2023/08/09 03:25:09;;;;;;;3.50;1.08;;;;;;;17.94;100.00;100437.13;5037181;28;20609;-69
2023/08/09 03:27:35;;;;;;;1.00;0.88;;;;;;;17.78;100.00;100421.50;5072090;28;20195;-68
2023/08/09 03:30:04;;;;;;;3.03;1.08;;;;;;;17.78;100.00;100421.50;5072243;28;20676;-69
2023/08/09 03:32:31;;;;;;;0.60;0.60;;;;;;;17.88;100.00;100439.78;5071359;28;20260;-69
2023/08/09 03:34:58;;;;;;;4.13;1.05;;;;;;;17.88;100.00;100445.88;5071913;28;20223;-69
2023/08/09 03:37:25;;;;;;;0.75;0.75;;;;;;;17.88;100.00;100431.91;5071616;28;20311;-69
2023/08/09 03:39:51;;;;;;;1.10;0.80;;;;;;;18.03;100.00;100445.75;5071531;28;20194;-68
2023/08/09 03:42:20;;;;;;;2.55;0.90;;;;;;;17.98;100.00;100418.69;5071643;28;20205;-69
2023/08/09 03:44:47;;;;;;;2.67;0.93;;;;;;;18.19;100.00;100455.22;5054269;28;20214;-68
2023/08/09 03:47:13;;;;;;;1.05;0.70;;;;;;;18.39;100.00;100451.53;5066935;28;20217;-68
2023/08/09 03:49:40;;;;;;;2.90;0.90;;;;;;;18.87;100.00;100461.47;5071314;28;20681;-68
2023/08/09 03:52:07;;;;;;;0.60;0.60;;;;;;;19.47;100.00;100470.34;5070809;28;20210;-68
2023/08/09 03:54:34;;;;;;;1.70;0.80;;;;;;;20.12;100.00;100481.56;5071058;28;20232;-69
2023/08/09 03:57:01;;;;;;;2.40;0.88;;;;;;;20.66;100.00;100484.94;5067184;28;20234;-68
2023/08/09 03:59:29;;;;;;;1.00;0.85;;;;;;;21.30;100.00;100486.28;5070099;28;20198;-68
2023/08/09 04:01:56;;;;;;;2.83;0.82;;;;;;;21.80;100.00;100491.22;5070859;28;20657;-68
2023/08/09 04:04:23;;;;;;;1.42;0.80;;;;;;;22.09;100.00;100483.50;5036082;28;20202;-68
2023/08/09 04:06:50;;;;;;;1.45;0.80;;;;;;;22.59;100.00;100499.78;5071354;28;20202;-68
2023/08/09 04:09:17;;;;;;;1.75;0.75;;;;;;;23.11;100.00;100504.50;5036081;28;20210;-68
2023/08/09 04:11:43;;;;;;;1.23;0.77;;;;;;;23.44;95.11;100510.56;5032461;28;20199;-68
2023/08/09 04:14:10;;;;;;;0.80;0.55;;;;;;;23.54;92.71;100504.09;5032354;28;20266;-68
2023/08/09 04:16:38;;;;;;;1.98;0.65;;;;;;;23.81;90.50;100512.94;5056527;28;20610;-68
2023/08/09 04:19:05;;;;;;;0.77;0.63;;;;;;;24.37;89.85;100513.72;5066618;28;20259;-69
2023/08/09 04:21:33;;;;;;;1.65;0.82;;;;;;;24.87;83.35;100506.63;5070894;28;20210;-68
2023/08/09 04:24:00;;;;;;;0.60;0.60;;;;;;;24.93;79.76;100515.28;5071136;28;20194;-68
2023/08/09 04:26:27;;;;;;;3.22;1.10;;;;;;;25.21;78.75;100511.56;5070765;28;20195;-67
2023/08/09 04:28:55;;;;;;;0.60;0.60;;;;;;;25.14;78.39;100513.59;5052526;28;20210;-68
2023/08/09 04:31:21;;;;;;;2.92;0.85;;;;;;;25.16;77.77;100509.06;5071125;28;20195;-67
2023/08/09 04:33:51;;;;;;;0.60;0.60;;;;;;;24.94;78.43;100490.44;5027119;28;20202;-67
2023/08/09 04:36:18;;;;;;;4.85;1.10;;;;;;;25.07;78.10;100507.66;5070906;28;20307;-67
2023/08/09 04:38:46;;;;;;;0.75;0.75;;;;;;;25.19;77.44;100501.00;5070225;28;20230;-67
2023/08/09 04:41:13;;;;;;;4.28;0.93;;;;;;;25.91;74.55;100513.19;5070461;28;20199;-66
2023/08/09 04:43:44;;;;;;;0.40;0.40;;;;;;;26.61;71.50;100515.56;5070253;28;20191;-67
2023/08/09 04:46:12;;;;;;;3.70;0.98;;;;;;;27.25;66.62;100518.00;5070340;28;20191;-67
2023/08/09 04:48:39;;;;;;;1.35;0.80;;;;;;;27.86;61.66;100527.47;5043608;28;20607;-67
2023/08/09 04:51:08;;;;;;;2.85;0.75;;;;;;;28.18;58.79;100511.72;5070770;28;20207;-67
2023/08/09 04:53:35;;;;;;;0.60;0.60;;;;;;;28.19;58.00;100532.97;5070156;28;20261;-67
2023/08/09 04:56:03;;;;;;;1.77;0.80;;;;;;;28.31;57.29;100529.69;5070451;28;20201;-67
2023/08/09 04:58:30;;;;;;;5.18;0.95;;;;;;;28.50;57.81;100534.97;5074590;28;20206;-67
2023/08/09 05:00:57;;;;;;;0.57;0.50;;;;;;;28.14;59.08;100536.81;5074572;28;20198;-68
2023/08/09 05:03:24;;;;;;;0.50;0.50;;;;;;;28.25;59.35;100540.69;5039185;28;20202;-68
2023/08/09 05:05:51;;;;;;;5.18;0.95;;;;;;;28.75;58.28;100534.56;5074436;28;20205;-68
2023/08/09 05:08:20;;;;;;;0.40;0.40;;;;;;;29.24;56.36;100535.47;5074839;28;20220;-68
2023/08/09 05:10:47;;;;;;;4.60;0.98;;;;;;;29.48;54.39;100542.16;5074723;28;20209;-69
2023/08/09 05:13:13;;;;;;;5.40;1.02;;;;;;;29.38;54.44;100540.94;5046057;28;20201;-67
2023/08/09 05:15:40;;;;;;;3.03;0.90;;;;;;;29.18;54.40;100546.50;5036925;28;20674;-66
2023/08/09 05:18:07;;;;;;;0.50;0.50;;;;;;;29.58;53.74;100559.41;5073900;28;20202;-68
2023/08/09 05:20:34;;;;;;;1.30;0.70;;;;;;;29.55;53.66;100559.56;5070721;28;20657;-68
2023/08/09 05:23:01;;;;;;;5.50;0.98;;;;;;;29.47;53.08;100567.16;5074487;28;20194;-68
2023/08/09 05:25:29;;;;;;;0.60;0.60;;;;;;;29.28;52.66;100555.75;5073217;28;20596;-68
2023/08/09 05:27:56;;;;;;;1.08;0.60;;;;;;;28.72;54.50;100558.72;5063133;28;20222;-68
2023/08/09 05:30:23;;;;;;;4.75;0.90;;;;;;;28.61;54.99;100561.94;5054452;28;20238;-68
2023/08/09 05:32:50;;;;;;;5.22;0.98;;;;;;;28.19;57.52;100543.63;5042047;28;20203;-68
2023/08/09 05:35:17;;;;;;;7.88;1.23;;;;;;;27.86;59.00;100563.94;5073805;28;20244;-68
2023/08/09 05:37:44;;;;;;;2.13;0.77;;;;;;;27.37;62.76;100565.34;5060756;28;20199;-67
2023/08/09 05:40:13;;;;;;;6.75;1.33;;;;;;;26.86;64.49;100572.09;5065580;28;20204;-68
2023/08/09 05:42:41;;;;;;;5.55;1.00;;;;;;;25.44;72.85;100568.16;5067687;28;20210;-67
2023/08/09 05:45:08;;;;;;;10.73;1.48;;;;;;;25.08;77.91;100565.09;5062766;28;20701;-67
2023/08/09 05:47:35;;;;;;;4.75;1.00;;;;;;;25.01;77.97;100570.69;5068001;28;20234;-67
2023/08/09 05:50:02;;;;;;;0.73;0.70;;;;;;;24.93;79.67;100565.69;5018998;28;20199;-68
2023/08/09 05:52:29;;;;;;;2.60;0.85;;;;;;;24.80;80.28;100572.28;5067883;28;20295;-67
2023/08/09 05:54:56;;;;;;;7.13;1.27;;;;;;;24.94;80.16;100570.03;5058635;28;20204;-67
2023/08/09 05:57:23;;;;;;;2.95;0.80;;;;;;;24.94;79.85;100543.50;5063248;28;20590;-67
2023/08/09 05:59:51;;;;;;;0.70;0.70;;;;;;;25.19;79.98;100570.00;5073475;28;20199;-67
2023/08/09 06:02:18;;;;;;;3.03;0.85;;;;;;;25.29;78.43;100565.25;5071930;28;20199;-68
2023/08/09 06:04:44;;;;;;;0.70;0.70;;;;;;;24.79;80.02;100543.19;5037993;28;20203;-68
2023/08/09 06:07:11;;;;;;;3.28;0.95;;;;;;;24.89;81.19;100565.84;5073046;28;20214;-68
2023/08/09 06:09:38;;;;;;;1.40;0.77;;;;;;;24.33;83.72;100559.84;5059250;28;20208;-68
2023/08/09 06:12:06;;;;;;;6.70;1.23;;;;;;;23.90;89.26;100570.94;5073181;28;20202;-68
2023/08/09 06:14:33;;;;;;;0.70;0.70;;;;;;;23.23;93.67;100536.75;5072936;28;20210;-68
2023/08/09 06:17:01;;;;;;;9.20;1.45;;;;;;;23.38;95.28;100555.72;5072993;28;20202;-68
2023/08/09 06:19:28;;;;;;;1.27;0.75;;;;;;;23.15;99.53;100554.63;5059868;28;20218;-68
2023/08/09 06:21:55;;;;;;;3.45;1.05;;;;;;;23.10;98.53;100561.84;5072439;28;20218;-68
2023/08/09 06:24:22;;;;;;;0.70;0.70;;;;;;;23.06;98.98;100560.19;5069331;28;20696;-68
2023/08/09 06:26:49;;;;;;;2.92;0.90;;;;;;;22.78;100.00;100559.22;5042313;28;20214;-68
2023/08/09 06:29:15;;;;;;;0.68;0.68;;;;;;;22.90;100.00;100561.50;5071404;28;20736;-68
2023/08/09 06:31:42;;;;;;;4.95;1.05;;;;;;;22.79;100.00;100560.97;5072783;28;20227;-67
2023/08/09 06:34:11;;;;;;;1.05;1.00;;;;;;;22.52;100.00;100559.00;5072731;28;20206;-66
2023/08/09 06:36:37;;;;;;;4.25;1.02;;;;;;;22.57;100.00;100550.06;5053937;28;20639;-68
2023/08/09 06:39:05;;;;;;;1.65;0.90;;;;;;;22.38;100.00;100537.34;5072883;28;20206;-68
2023/08/09 06:41:31;;;;;;;3.30;0.95;;;;;;;22.41;100.00;100554.00;5053950;28;20207;-68
2023/08/09 06:43:58;;;;;;;1.70;0.65;;;;;;;22.32;100.00;100522.53;5033172;28;20195;-68
2023/08/09 06:46:25;;;;;;;2.70;0.88;;;;;;;22.22;100.00;100560.66;5072293;28;20210;-67
2023/08/09 06:48:52;;;;;;;0.60;0.60;;;;;;;22.36;100.00;100565.59;5064941;28;20219;-68
2023/08/09 06:51:20;;;;;;;5.90;1.13;;;;;;;22.30;100.00;100563.09;5023716;28;20195;-68
2023/08/09 06:53:49;;;;;;;0.75;0.75;;;;;;;22.23;100.00;100557.09;5071775;28;20210;-68
2023/08/09 06:56:16;;;;;;;4.25;1.20;;;;;;;22.13;100.00;100556.47;5033885;28;20206;-68
2023/08/09 06:58:42;;;;;;;0.73;0.73;;;;;;;22.03;100.00;100556.72;5037108;28;20621;-68
2023/08/09 07:01:10;;;;;;;8.75;1.33;;;;;;;22.32;100.00;100561.31;5019131;28;20199;-68
2023/08/09 07:03:37;;;;;;;4.78;1.05;;;;;;;22.31;100.00;100551.63;5063686;28;20669;-68
2023/08/09 07:06:04;;;;;;;0.70;0.70;;;;;;;22.55;100.00;100536.00;5059566;28;20195;-68
2023/08/09 07:08:32;;;;;;;4.05;1.02;;;;;;;22.66;100.00;100554.22;5070131;28;20230;-67
2023/08/09 07:10:59;;;;;;;12.45;1.58;;;;;;;22.75;100.00;100554.03;5022651;28;20692;-68
2023/08/09 07:13:27;;;;;;;7.70;1.25;;;;;;;22.38;100.00;100472.16;5068951;28;20288;-68
2023/08/09 07:15:54;;;;;;;0.68;0.65;;;;;;;22.70;98.24;100537.41;5066596;28;20691;-68
2023/08/09 07:18:21;;;;;;;7.03;1.25;;;;;;;22.81;97.07;100551.19;5060237;28;20612;-68
2023/08/09 07:20:47;;;;;;;4.68;1.08;;;;;;;22.42;100.00;100539.00;5068523;28;20696;-68
2023/08/09 07:23:14;;;;;;;6.13;1.15;;;;;;;22.78;100.00;100542.47;5069162;28;20194;-69
2023/08/09 07:25:42;;;;;;;0.82;0.63;;;;;;;23.00;99.97;100549.78;5051798;28;20199;-68
2023/08/09 07:28:11;;;;;;;3.30;0.95;;;;;;;23.03;95.30;100549.69;5052031;28;20273;-68
2023/08/09 07:30:38;;;;;;;1.75;0.80;;;;;;;23.01;95.98;100540.91;5065446;28;20199;-68
2023/08/09 07:33:05;;;;;;;3.20;0.85;;;;;;;23.09;97.98;100525.69;5022673;28;20203;-68
2023/08/09 07:35:32;;;;;;;0.80;0.80;;;;;;;23.01;99.42;100493.31;5049460;28;20791;-68
2023/08/09 07:37:59;;;;;;;4.20;1.08;;;;;;;23.35;97.97;100524.06;5058511;28;20199;-68
2023/08/09 07:40:25;;;;;;;0.60;0.60;;;;;;;22.88;93.47;100433.75;5069404;28;20203;-69
2023/08/09 07:42:55;;;;;;;3.85;0.88;;;;;;;23.28;90.54;100518.09;5070470;28;20194;-68
2023/08/09 07:45:22;;;;;;;3.90;0.90;;;;;;;23.14;90.68;100521.16;5071487;28;20198;-68
2023/08/09 07:47:49;;;;;;;3.22;0.95;;;;;;;23.24;90.71;100513.81;5071326;28;20205;-68
2023/08/09 07:50:16;;;;;;;1.55;0.85;;;;;;;23.17;92.87;100491.09;5049582;28;20207;-69
